Time;durP1;ratioP1;P1;durP2;ratioP2;P2;SDS_P1;SDS_P2;PMS_P1;PMS_P2;Temp;Humidity;BMP_temperature;BMP_pressure;BME280_temperature;BME280_humidity;BME280_pressure;Samples;Min_cycle;Max_cycle;Signal;HPM_P1;HPM_P2
2020/12/19 00:00:02;;;;;;;11.50;10.50;;;8.50;92.20;;;;;;5071236;28;20637;-53
2020/12/19 00:02:29;;;;;;;9.10;8.30;;;8.50;92.20;;;;;;5071198;28;20711;-51
2020/12/19 00:04:56;;;;;;;10.90;9.90;;;8.50;92.00;;;;;;5070764;28;21025;-53
2020/12/19 00:07:23;;;;;;;10.60;9.63;;;8.50;92.00;;;;;;5070788;28;20988;-53
2020/12/19 00:09:49;;;;;;;11.53;10.03;;;8.40;92.00;;;;;;5071223;28;20639;-52
2020/12/19 00:12:20;;;;;;;10.83;9.83;;;8.40;92.00;;;;;;5071329;28;21247;-52
2020/12/19 00:14:48;;;;;;;8.80;8.00;;;8.40;92.10;;;;;;5070920;28;20660;-52
2020/12/19 00:17:14;;;;;;;9.20;8.40;;;8.30;92.10;;;;;;5070647;28;20632;-52
2020/12/19 00:19:41;;;;;;;10.07;9.07;;;8.30;92.10;;;;;;5078788;28;21014;-51
2020/12/19 00:22:08;;;;;;;11.33;10.17;;;8.30;92.20;;;;;;5090880;28;20686;-51
2020/12/19 00:24:35;;;;;;;12.07;10.90;;;8.20;92.30;;;;;;5076037;28;20651;-52
2020/12/19 00:27:02;;;;;;;11.67;10.67;;;8.30;92.30;;;;;;5070575;28;21260;-51
2020/12/19 00:29:28;;;;;;;10.40;9.50;;;8.30;92.40;;;;;;5070874;28;20632;-52
2020/12/19 00:31:56;;;;;;;10.10;9.20;;;8.30;92.50;;;;;;5056951;28;21017;-51
2020/12/19 00:34:23;;;;;;;8.10;7.40;;;8.30;92.50;;;;;;5068985;28;20656;-51
2020/12/19 00:36:49;;;;;;;8.17;7.47;;;8.30;92.60;;;;;;5069071;28;20634;-51
2020/12/19 00:39:16;;;;;;;9.07;8.30;;;8.30;92.60;;;;;;5059379;28;20638;-51
2020/12/19 00:41:45;;;;;;;9.00;8.20;;;8.30;92.50;;;;;;5090787;28;20666;-51
2020/12/19 00:44:11;;;;;;;8.90;8.17;;;8.30;92.60;;;;;;5076508;28;20613;-51
2020/12/19 00:46:38;;;;;;;8.50;7.80;;;8.30;92.80;;;;;;5070584;28;20621;-51
2020/12/19 00:49:06;;;;;;;7.70;7.00;;;8.30;92.90;;;;;;5070045;28;20975;-51
2020/12/19 00:51:33;;;;;;;8.20;7.50;;;8.30;92.90;;;;;;5070789;28;20624;-51
2020/12/19 00:53:59;;;;;;;11.07;9.90;;;8.30;92.90;;;;;;5070119;28;20624;-51
2020/12/19 00:56:27;;;;;;;7.33;6.73;;;8.30;92.80;;;;;;5070524;28;21195;-51
2020/12/19 00:58:54;;;;;;;8.47;7.67;;;8.30;92.70;;;;;;5070063;28;20617;-49
2020/12/19 01:01:22;;;;;;;8.60;7.73;;;8.30;92.70;;;;;;5070067;28;20660;-50
2020/12/19 01:03:49;;;;;;;7.57;6.87;;;8.30;92.60;;;;;;5070245;28;20646;-50
2020/12/19 01:06:17;;;;;;;8.43;7.73;;;8.20;92.50;;;;;;5069485;28;20651;-49
2020/12/19 01:08:44;;;;;;;8.50;7.73;;;8.20;92.50;;;;;;5069601;28;20727;-49
2020/12/19 01:11:13;;;;;;;9.13;8.33;;;8.20;92.60;;;;;;5070281;28;20670;-50
2020/12/19 01:13:40;;;;;;;8.90;8.17;;;8.20;92.60;;;;;;5051986;28;20688;-49
2020/12/19 01:16:08;;;;;;;8.43;7.73;;;8.20;92.80;;;;;;5070152;28;20660;-49
2020/12/19 01:18:35;;;;;;;10.97;9.90;;;8.10;92.80;;;;;;5069857;28;20631;-50
2020/12/19 01:21:01;;;;;;;8.77;7.80;;;8.10;92.80;;;;;;5069932;28;20661;-48
2020/12/19 01:23:29;;;;;;;9.10;8.20;;;8.10;92.80;;;;;;5069730;28;20707;-49
2020/12/19 01:25:56;;;;;;;8.93;7.93;;;8.10;92.80;;;;;;5069786;28;20678;-49
2020/12/19 01:28:23;;;;;;;9.87;8.87;;;8.10;92.80;;;;;;5070193;28;20677;-49
2020/12/19 01:30:49;;;;;;;10.60;8.40;;;8.10;92.80;;;;;;5069071;28;20758;-49
2020/12/19 01:33:16;;;;;;;9.73;8.83;;;8.00;92.80;;;;;;5077727;28;20632;-48
2020/12/19 01:35:43;;;;;;;9.93;8.93;;;8.00;92.90;;;;;;5070062;28;20697;-49
2020/12/19 01:38:10;;;;;;;8.70;7.90;;;8.00;92.90;;;;;;5069577;28;20673;-48
2020/12/19 01:40:37;;;;;;;13.90;9.67;;;8.00;92.90;;;;;;5069401;28;20634;-49
2020/12/19 01:43:04;;;;;;;11.40;9.13;;;8.00;92.90;;;;;;5069355;28;20656;-49
2020/12/19 01:45:31;;;;;;;10.13;8.63;;;8.00;92.90;;;;;;5069482;28;20678;-49
2020/12/19 01:47:58;;;;;;;8.53;7.73;;;8.00;92.80;;;;;;5071329;28;21244;-49
2020/12/19 01:50:24;;;;;;;11.70;10.50;;;8.00;92.80;;;;;;5073822;28;20635;-47
2020/12/19 01:52:51;;;;;;;11.40;10.20;;;7.90;92.70;;;;;;5073478;28;20624;-48
2020/12/19 01:55:18;;;;;;;8.50;7.70;;;7.90;92.80;;;;;;5073252;28;20663;-48
2020/12/19 01:57:46;;;;;;;10.07;9.07;;;7.90;92.80;;;;;;5073342;28;20760;-48
2020/12/19 02:00:12;;;;;;;12.43;10.63;;;7.80;92.70;;;;;;5073437;28;20633;-48
2020/12/19 02:02:39;;;;;;;12.70;9.47;;;7.80;92.80;;;;;;5073348;28;20656;-48
2020/12/19 02:05:06;;;;;;;11.87;9.00;;;7.80;93.10;;;;;;5073359;28;20670;-49
2020/12/19 02:07:34;;;;;;;10.17;8.90;;;7.80;92.80;;;;;;5073141;28;20656;-52
2020/12/19 02:10:01;;;;;;;34.57;12.57;;;7.80;92.60;;;;;;5055553;28;20650;-53
2020/12/19 02:12:28;;;;;;;14.47;8.40;;;7.80;92.70;;;;;;5073435;28;21022;-48
2020/12/19 02:14:58;;;;;;;10.60;8.50;;;7.80;92.70;;;;;;5073032;28;20714;-50
2020/12/19 02:17:24;;;;;;;31.77;9.80;;;7.70;92.60;;;;;;5073108;28;20917;-49
2020/12/19 02:19:51;;;;;;;29.10;10.27;;;7.70;92.60;;;;;;5072366;28;20618;-49
2020/12/19 02:22:18;;;;;;;21.90;8.40;;;7.70;92.60;;;;;;5073196;28;20660;-49
2020/12/19 02:24:46;;;;;;;9.07;7.87;;;7.60;92.70;;;;;;5072758;28;20980;-50
2020/12/19 02:27:12;;;;;;;30.70;9.40;;;7.60;92.90;;;;;;5073365;28;20640;-51
2020/12/19 02:29:39;;;;;;;85.40;13.30;;;7.60;92.80;;;;;;5073297;28;20635;-48
2020/12/19 02:32:06;;;;;;;48.03;10.70;;;7.70;92.80;;;;;;5058703;28;20661;-49
2020/12/19 02:34:33;;;;;;;59.23;11.50;;;7.70;92.60;;;;;;5066653;28;20660;-51
2020/12/19 02:36:59;;;;;;;37.70;10.93;;;7.70;92.50;;;;;;5077771;28;20702;-50
2020/12/19 02:39:26;;;;;;;29.73;9.83;;;7.60;92.50;;;;;;5081693;28;20631;-48
2020/12/19 02:41:54;;;;;;;21.33;9.27;;;7.60;92.50;;;;;;5084355;28;20727;-51
2020/12/19 02:44:21;;;;;;;32.97;9.90;;;7.60;92.50;;;;;;5072853;28;20654;-50
2020/12/19 02:46:51;;;;;;;22.93;9.97;;;7.60;92.60;;;;;;5072173;28;20661;-49
2020/12/19 02:49:19;;;;;;;16.30;8.10;;;7.60;92.70;;;;;;5073175;28;20675;-48
2020/12/19 02:51:46;;;;;;;24.23;9.73;;;7.60;92.80;;;;;;5068463;28;20632;-50
2020/12/19 02:54:12;;;;;;;11.20;7.20;;;7.60;92.80;;;;;;5072167;28;21243;-50
2020/12/19 02:56:39;;;;;;;11.97;8.97;;;7.60;93.20;;;;;;5054758;28;20634;-50
2020/12/19 02:59:07;;;;;;;9.63;8.73;;;7.60;93.00;;;;;;5072433;28;21133;-50
2020/12/19 03:01:34;;;;;;;9.90;8.90;;;7.60;93.10;;;;;;5072441;28;20630;-51
2020/12/19 03:04:00;;;;;;;8.00;7.20;;;7.70;93.10;;;;;;5072098;28;21244;-49
2020/12/19 03:06:28;;;;;;;7.67;6.87;;;7.70;93.00;;;;;;5072565;28;20627;-50
2020/12/19 03:08:55;;;;;;;8.60;7.80;;;7.70;93.00;;;;;;5072711;28;20726;-49
2020/12/19 03:11:22;;;;;;;8.63;7.80;;;7.70;92.90;;;;;;5072385;28;20697;-49
2020/12/19 03:13:49;;;;;;;11.57;10.10;;;7.70;92.80;;;;;;5072967;28;20623;-49
2020/12/19 03:16:16;;;;;;;9.10;7.90;;;7.70;92.70;;;;;;5072010;28;21055;-48
2020/12/19 03:18:43;;;;;;;8.37;7.57;;;7.70;92.70;;;;;;5072017;28;20632;-47
2020/12/19 03:21:10;;;;;;;10.00;9.03;;;7.70;93.00;;;;;;5071511;28;20641;-50
2020/12/19 03:23:36;;;;;;;7.20;6.60;;;7.70;92.60;;;;;;5071172;28;20663;-48
2020/12/19 03:26:03;;;;;;;7.87;7.10;;;7.70;92.60;;;;;;5072043;28;21042;-47
2020/12/19 03:28:30;;;;;;;7.83;7.17;;;7.80;92.60;;;;;;5071860;28;21119;-50
2020/12/19 03:30:57;;;;;;;7.43;6.77;;;7.80;92.50;;;;;;5053883;28;20631;-49
2020/12/19 03:33:24;;;;;;;7.50;6.80;;;7.70;92.50;;;;;;5072005;28;20658;-49
2020/12/19 03:35:51;;;;;;;12.23;7.30;;;7.80;92.90;;;;;;5071545;28;20702;-50
2020/12/19 03:38:18;;;;;;;8.47;7.67;;;7.80;92.50;;;;;;5070818;28;20701;-49
2020/12/19 03:40:45;;;;;;;9.13;8.40;;;7.80;92.40;;;;;;5072051;28;20723;-49
2020/12/19 03:43:12;;;;;;;7.93;7.20;;;7.80;92.50;;;;;;5053739;28;20678;-49
2020/12/19 03:45:39;;;;;;;7.13;6.47;;;7.80;92.60;;;;;;5071556;28;20699;-49
2020/12/19 03:48:06;;;;;;;8.23;7.43;;;7.90;92.70;;;;;;5071303;28;21003;-48
2020/12/19 03:50:33;;;;;;;9.23;7.60;;;7.90;92.70;;;;;;5070976;28;21187;-50
2020/12/19 03:53:00;;;;;;;9.00;8.10;;;7.90;92.60;;;;;;5071297;28;20701;-52
2020/12/19 03:55:27;;;;;;;7.80;7.20;;;7.90;92.60;;;;;;5093826;22;20690;-55
2020/12/19 03:57:53;;;;;;;7.63;6.83;;;8.00;92.50;;;;;;5093105;28;20619;-55
2020/12/19 04:00:20;;;;;;;6.83;6.23;;;8.00;92.40;;;;;;5088216;28;20650;-55
2020/12/19 04:02:47;;;;;;;7.03;6.43;;;8.00;92.40;;;;;;5072791;28;20708;-55
2020/12/19 04:05:14;;;;;;;7.70;7.00;;;8.00;92.50;;;;;;5072697;28;20655;-55
2020/12/19 04:07:41;;;;;;;8.07;7.37;;;8.00;92.40;;;;;;5072887;28;20622;-56
2020/12/19 04:10:08;;;;;;;9.60;8.60;;;8.00;92.40;;;;;;5072184;28;20629;-54
2020/12/19 04:12:35;;;;;;;8.00;7.20;;;8.00;92.40;;;;;;5073068;28;20673;-55
2020/12/19 04:15:03;;;;;;;8.53;7.40;;;8.10;92.40;;;;;;5073682;28;20663;-55
2020/12/19 04:17:29;;;;;;;10.40;7.93;;;8.10;92.40;;;;;;5054720;28;20704;-54
2020/12/19 04:19:56;;;;;;;8.27;7.57;;;8.10;92.40;;;;;;5072453;28;20704;-54
2020/12/19 04:22:23;;;;;;;8.33;7.43;;;8.00;92.40;;;;;;5083488;28;20724;-54
2020/12/19 04:24:51;;;;;;;9.07;7.30;;;8.00;92.40;;;;;;5092185;28;20654;-54
2020/12/19 04:27:18;;;;;;;10.20;7.37;;;8.00;92.50;;;;;;5072207;28;20624;-54
2020/12/19 04:29:44;;;;;;;8.77;7.83;;;8.00;92.60;;;;;;5072048;28;20704;-54
2020/12/19 04:32:11;;;;;;;9.63;8.73;;;8.00;92.60;;;;;;5071307;28;21042;-53
2020/12/19 04:34:38;;;;;;;9.83;8.97;;;8.10;92.60;;;;;;5071849;28;21020;-53
2020/12/19 04:37:05;;;;;;;11.83;7.53;;;8.10;92.50;;;;;;5071484;28;20624;-53
2020/12/19 04:39:31;;;;;;;9.53;7.60;;;8.10;92.60;;;;;;5071762;28;20624;-54
2020/12/19 04:41:59;;;;;;;8.77;7.90;;;8.10;92.70;;;;;;5071646;28;21030;-54
2020/12/19 04:44:26;;;;;;;10.33;9.27;;;8.10;93.00;;;;;;5071661;28;21239;-53
2020/12/19 04:46:53;;;;;;;7.83;7.03;;;8.10;92.70;;;;;;5071463;28;20632;-52
2020/12/19 04:49:19;;;;;;;10.27;7.63;;;8.20;92.70;;;;;;5071878;28;20637;-54
2020/12/19 04:51:46;;;;;;;10.70;9.70;;;8.10;92.50;;;;;;5075234;28;20631;-51
2020/12/19 04:54:13;;;;;;;9.93;8.53;;;8.20;92.40;;;;;;5071149;28;20624;-53
2020/12/19 04:56:40;;;;;;;11.10;8.80;;;8.10;92.40;;;;;;5070966;28;20682;-53
2020/12/19 04:59:07;;;;;;;11.83;7.80;;;8.10;92.50;;;;;;5054032;28;20639;-53
2020/12/19 05:01:34;;;;;;;8.83;8.03;;;8.10;92.70;;;;;;5071513;28;20624;-52
2020/12/19 05:04:01;;;;;;;9.27;8.17;;;8.10;92.70;;;;;;5053720;28;20668;-52
2020/12/19 05:06:29;;;;;;;10.30;8.10;;;8.10;92.70;;;;;;5071054;28;20708;-53
2020/12/19 05:08:56;;;;;;;7.83;6.97;;;8.10;92.70;;;;;;5071122;28;20618;-52
2020/12/19 05:11:24;;;;;;;10.27;8.47;;;8.10;92.60;;;;;;5071107;28;20640;-53
2020/12/19 05:13:50;;;;;;;9.00;8.03;;;8.00;92.40;;;;;;5071225;28;20626;-52
2020/12/19 05:16:18;;;;;;;10.93;9.90;;;8.00;92.40;;;;;;5071132;28;20656;-53
2020/12/19 05:18:45;;;;;;;9.50;8.60;;;8.00;92.60;;;;;;5071353;28;20677;-53
2020/12/19 05:21:12;;;;;;;8.60;7.70;;;7.90;92.50;;;;;;5051349;28;20687;-54
2020/12/19 05:23:39;;;;;;;12.00;7.90;;;7.90;92.50;;;;;;5051254;28;21203;-54
2020/12/19 05:26:07;;;;;;;10.70;9.70;;;7.90;92.40;;;;;;5058447;28;21202;-54
2020/12/19 05:28:34;;;;;;;9.83;8.83;;;7.90;92.40;;;;;;5053212;28;20686;-53
2020/12/19 05:31:01;;;;;;;8.57;7.67;;;7.90;92.30;;;;;;5070036;28;20644;-51
2020/12/19 05:33:33;;;;;;;10.10;8.53;;;7.80;92.20;;;;;;5070515;28;20608;-51
2020/12/19 05:36:00;;;;;;;8.80;7.50;;;7.80;92.20;;;;;;5070923;28;20726;-51
2020/12/19 05:38:28;;;;;;;9.13;7.83;;;7.80;92.30;;;;;;5070734;28;20708;-51
2020/12/19 05:40:54;;;;;;;9.23;8.37;;;7.70;92.20;;;;;;5070889;28;20681;-52
2020/12/19 05:43:21;;;;;;;9.70;8.33;;;7.70;92.40;;;;;;5070428;28;20734;-52
2020/12/19 05:45:48;;;;;;;12.20;9.80;;;7.70;92.30;;;;;;5070906;28;20730;-52
2020/12/19 05:48:15;;;;;;;11.70;10.50;;;7.70;92.30;;;;;;5070745;28;20682;-51
2020/12/19 05:50:43;;;;;;;9.40;8.50;;;7.70;92.40;;;;;;5070945;28;20655;-52
2020/12/19 05:53:10;;;;;;;10.43;8.77;;;7.70;92.50;;;;;;5070882;28;20998;-52
2020/12/19 05:55:37;;;;;;;12.93;9.87;;;7.70;92.40;;;;;;5070682;28;20655;-51
2020/12/19 05:58:05;;;;;;;11.90;10.43;;;7.80;92.40;;;;;;5070856;28;20631;-52
2020/12/19 06:00:32;;;;;;;11.90;10.67;;;7.70;92.40;;;;;;5071002;28;20636;-51
2020/12/19 06:03:01;;;;;;;11.13;9.93;;;7.80;92.80;;;;;;5070290;28;20701;-51
2020/12/19 06:05:29;;;;;;;10.53;9.43;;;7.80;92.40;;;;;;5070841;28;20732;-52
2020/12/19 06:07:57;;;;;;;10.30;9.37;;;7.80;92.40;;;;;;5070680;28;20625;-52
2020/12/19 06:10:24;;;;;;;12.83;10.07;;;7.80;92.30;;;;;;5071217;28;20640;-52
2020/12/19 06:12:58;;;;;;;10.00;9.00;;;7.90;92.20;;;;;;5071040;28;20623;-53
2020/12/19 06:15:53;;;;;;;10.60;8.67;;;7.90;92.10;;;;;;5071342;28;20767;-53
2020/12/19 06:18:38;;;;;;;9.80;8.40;;;7.90;92.20;;;;;;5056736;28;20628;-54
2020/12/19 06:21:07;;;;;;;9.90;9.00;;;7.90;92.10;;;;;;5070706;28;20631;-55
2020/12/19 06:23:35;;;;;;;12.10;9.57;;;7.90;91.90;;;;;;5050118;28;21220;-54
2020/12/19 06:26:01;;;;;;;10.43;9.33;;;7.90;91.90;;;;;;5058348;28;20685;-54
2020/12/19 06:28:47;;;;;;;9.90;8.90;;;8.00;91.90;;;;;;5070842;28;20680;-53
2020/12/19 06:31:16;;;;;;;10.57;9.40;;;7.90;91.80;;;;;;5066805;28;20635;-54
2020/12/19 06:33:46;;;;;;;9.57;8.53;;;7.90;91.90;;;;;;5070631;28;20627;-54
2020/12/19 06:36:23;;;;;;;9.03;8.13;;;7.90;91.90;;;;;;5073599;28;20703;-53
2020/12/19 06:38:52;;;;;;;9.43;8.53;;;7.90;91.90;;;;;;5074264;28;21106;-54
2020/12/19 06:41:44;;;;;;;10.50;8.20;;;7.90;92.30;;;;;;5074073;28;20965;-53
2020/12/19 06:44:12;;;;;;;14.27;11.27;;;7.90;92.00;;;;;;5073561;28;20671;-54
2020/12/19 06:46:39;;;;;;;9.67;8.77;;;7.90;92.00;;;;;;5073679;28;20717;-55
2020/12/19 06:49:32;;;;;;;10.23;9.23;;;7.90;92.00;;;;;;5056379;28;20622;-54
2020/12/19 06:52:09;;;;;;;8.80;7.63;;;7.90;92.10;;;;;;5073669;28;20654;-54
2020/12/19 06:54:37;;;;;;;8.00;7.20;;;7.90;92.00;;;;;;5073766;28;20753;-54
2020/12/19 06:57:05;;;;;;;9.20;8.30;;;7.90;92.10;;;;;;5073663;28;20686;-52
2020/12/19 06:59:33;;;;;;;8.20;7.47;;;7.90;92.10;;;;;;5072960;28;20627;-53
2020/12/19 07:02:19;;;;;;;9.17;7.73;;;7.80;92.20;;;;;;5073663;28;20622;-53
2020/12/19 07:04:46;;;;;;;10.03;9.13;;;7.80;92.40;;;;;;5073484;28;20675;-53
2020/12/19 07:07:14;;;;;;;9.23;7.90;;;7.80;92.40;;;;;;5073526;28;20686;-54
2020/12/19 07:09:42;;;;;;;9.13;8.23;;;7.80;92.40;;;;;;5073576;28;20635;-53
2020/12/19 07:12:34;;;;;;;12.03;8.10;;;7.80;92.40;;;;;;5073853;28;20635;-53
2020/12/19 07:15:01;;;;;;;9.70;7.47;;;7.80;92.40;;;;;;5073946;28;20647;-56
2020/12/19 07:17:27;;;;;;;9.63;8.67;;;7.80;92.40;;;;;;5055689;28;20622;-51
2020/12/19 07:19:58;;;;;;;9.23;8.40;;;7.70;92.40;;;;;;5074602;28;20631;-52
2020/12/19 07:22:25;;;;;;;9.17;8.27;;;7.70;92.50;;;;;;5076121;28;20954;-53
2020/12/19 07:24:53;;;;;;;9.50;7.93;;;7.70;92.50;;;;;;5075192;28;20663;-51
2020/12/19 07:27:20;;;;;;;7.97;7.17;;;7.70;92.50;;;;;;5075207;28;20687;-51
2020/12/19 07:29:47;;;;;;;8.33;7.43;;;7.70;92.50;;;;;;5074794;28;20628;-54
2020/12/19 07:32:14;;;;;;;9.57;8.07;;;7.70;92.40;;;;;;5074744;28;20627;-52
2020/12/19 07:34:41;;;;;;;10.00;9.00;;;7.70;92.30;;;;;;5074179;28;21284;-54
2020/12/19 07:37:07;;;;;;;9.53;8.57;;;7.70;92.20;;;;;;5073568;28;20637;-54
2020/12/19 07:39:34;;;;;;;9.17;8.17;;;7.70;92.20;;;;;;5074598;28;21032;-54
2020/12/19 07:42:04;;;;;;;11.50;8.20;;;7.70;92.40;;;;;;5075553;28;21186;-55
2020/12/19 07:44:31;;;;;;;12.43;8.77;;;7.70;92.40;;;;;;5072345;28;20658;-53
2020/12/19 07:46:59;;;;;;;9.50;8.60;;;7.70;92.50;;;;;;5072331;28;20631;-51
2020/12/19 07:49:34;;;;;;;10.00;9.00;;;7.70;92.50;;;;;;5072715;28;20632;-52
2020/12/19 07:52:04;;;;;;;10.63;9.63;;;7.70;92.50;;;;;;5073358;28;20627;-52
2020/12/19 07:54:31;;;;;;;10.37;9.37;;;7.70;92.40;;;;;;5092914;28;20684;-53
2020/12/19 07:56:58;;;;;;;8.27;7.10;;;7.80;92.10;;;;;;5093557;28;20704;-54
2020/12/19 07:59:27;;;;;;;10.70;9.23;;;7.80;92.00;;;;;;5093341;28;20691;-54
2020/12/19 08:01:54;;;;;;;9.40;8.50;;;7.80;92.10;;;;;;5065638;28;20637;-54
2020/12/19 08:04:21;;;;;;;9.30;8.40;;;7.80;92.10;;;;;;5052554;28;20665;-52
2020/12/19 08:06:48;;;;;;;8.67;7.87;;;7.80;92.00;;;;;;5052989;28;20621;-54
2020/12/19 08:09:18;;;;;;;10.43;9.37;;;7.70;91.90;;;;;;5052507;28;21270;-52
2020/12/19 08:11:45;;;;;;;10.23;8.07;;;7.80;92.00;;;;;;5052450;28;20687;-52
2020/12/19 08:14:14;;;;;;;8.20;7.27;;;7.70;92.00;;;;;;5051422;28;20643;-53
2020/12/19 08:16:42;;;;;;;10.53;9.40;;;7.80;92.00;;;;;;5063928;28;21055;-52
2020/12/19 08:19:09;;;;;;;11.43;10.20;;;7.80;92.10;;;;;;5072578;28;20620;-53
2020/12/19 08:21:36;;;;;;;12.13;10.23;;;7.80;92.30;;;;;;5071813;28;20625;-53
2020/12/19 08:24:03;;;;;;;11.50;9.20;;;7.90;92.50;;;;;;5071573;28;20662;-53
2020/12/19 08:26:29;;;;;;;9.97;8.87;;;8.00;92.40;;;;;;5071604;28;20656;-53
2020/12/19 08:29:03;;;;;;;9.03;8.10;;;8.00;92.40;;;;;;5071612;28;20627;-54
2020/12/19 08:31:30;;;;;;;9.07;8.17;;;8.00;92.30;;;;;;5071617;28;20700;-52
2020/12/19 08:33:58;;;;;;;10.53;9.43;;;8.10;92.20;;;;;;5072020;28;20620;-52
2020/12/19 08:36:24;;;;;;;14.87;10.57;;;8.10;92.10;;;;;;5071813;28;20660;-52
2020/12/19 08:38:51;;;;;;;12.70;11.40;;;8.10;92.10;;;;;;5071587;28;20628;-52
2020/12/19 08:41:18;;;;;;;11.80;10.43;;;8.10;92.20;;;;;;5071652;28;20623;-51
2020/12/19 08:43:45;;;;;;;13.90;11.10;;;8.20;92.20;;;;;;5071318;28;20722;-52
2020/12/19 08:46:13;;;;;;;13.87;10.70;;;8.20;92.10;;;;;;5071594;28;20660;-52
2020/12/19 08:48:40;;;;;;;13.40;10.33;;;8.20;92.00;;;;;;5071770;28;20632;-53
2020/12/19 08:51:11;;;;;;;22.00;11.80;;;8.30;91.90;;;;;;5071003;28;20639;-52
2020/12/19 08:53:37;;;;;;;11.80;10.00;;;8.30;91.80;;;;;;5071603;28;20624;-52
2020/12/19 08:56:13;;;;;;;11.23;10.13;;;8.30;91.70;;;;;;5070768;28;20722;-51
2020/12/19 08:58:39;;;;;;;10.60;9.50;;;8.40;91.70;;;;;;5071415;28;20632;-51
2020/12/19 09:01:14;;;;;;;13.77;11.67;;;8.40;91.70;;;;;;5071414;28;20614;-52
2020/12/19 09:03:41;;;;;;;11.30;10.17;;;8.30;91.70;;;;;;5053909;28;20663;-54
2020/12/19 09:06:08;;;;;;;9.70;8.43;;;8.30;91.90;;;;;;5061031;28;21304;-55
2020/12/19 09:08:37;;;;;;;9.13;8.23;;;8.40;91.80;;;;;;5071676;28;20631;-54
2020/12/19 09:11:05;;;;;;;10.67;9.30;;;8.40;91.80;;;;;;5071575;28;20636;-55
2020/12/19 09:13:32;;;;;;;10.00;8.80;;;8.50;91.80;;;;;;5071378;28;20678;-55
2020/12/19 09:16:05;;;;;;;9.63;8.13;;;8.60;91.80;;;;;;5071604;28;20672;-55
2020/12/19 09:18:32;;;;;;;9.93;8.70;;;8.60;91.70;;;;;;5071807;28;20632;-54
2020/12/19 09:21:00;;;;;;;11.93;9.43;;;8.60;91.70;;;;;;5071521;28;21052;-55
2020/12/19 09:23:27;;;;;;;10.53;9.50;;;8.60;91.80;;;;;;5073552;28;20628;-53
2020/12/19 09:25:56;;;;;;;9.63;8.73;;;8.70;91.70;;;;;;5072269;28;20656;-52
2020/12/19 09:28:23;;;;;;;11.73;9.43;;;8.80;91.80;;;;;;5071107;28;20671;-52
2020/12/19 09:30:50;;;;;;;11.33;8.87;;;8.90;92.00;;;;;;5068287;28;21237;-52
2020/12/19 09:33:17;;;;;;;10.40;9.30;;;9.00;91.90;;;;;;5059058;28;20968;-52
2020/12/19 09:35:44;;;;;;;10.30;9.50;;;9.10;91.60;;;;;;5062287;28;20657;-53
2020/12/19 09:38:11;;;;;;;9.40;8.40;;;9.30;91.40;;;;;;5088954;28;20718;-53
2020/12/19 09:40:37;;;;;;;9.80;8.90;;;9.30;91.00;;;;;;5073978;28;21190;-52
2020/12/19 09:43:05;;;;;;;8.80;8.10;;;9.40;91.20;;;;;;5070838;28;20625;-54
2020/12/19 09:45:32;;;;;;;8.10;7.40;;;9.70;91.30;;;;;;5070622;28;20665;-51
2020/12/19 09:47:59;;;;;;;10.60;8.83;;;10.10;90.60;;;;;;5070270;28;21285;-54
2020/12/19 09:50:26;;;;;;;9.00;8.10;;;10.60;90.10;;;;;;5070292;28;20633;-54
2020/12/19 09:52:53;;;;;;;10.03;9.00;;;11.00;88.20;;;;;;5070800;28;20950;-53
2020/12/19 09:55:20;;;;;;;11.67;10.20;;;11.20;86.20;;;;;;5085101;22;20634;-53
2020/12/19 09:57:47;;;;;;;10.60;9.50;;;11.30;84.90;;;;;;5089634;28;20993;-52
2020/12/19 10:00:15;;;;;;;11.00;9.90;;;11.40;84.80;;;;;;5090169;28;21190;-52
2020/12/19 10:02:42;;;;;;;9.57;8.73;;;11.30;84.20;;;;;;5089491;28;20636;-52
2020/12/19 10:05:09;;;;;;;10.83;9.73;;;11.40;84.40;;;;;;5089566;28;20645;-53
2020/12/19 10:07:36;;;;;;;10.93;9.83;;;11.50;84.50;;;;;;5087118;28;21181;-52
2020/12/19 10:10:03;;;;;;;10.47;9.37;;;11.80;83.50;;;;;;5072749;28;20620;-53
2020/12/19 10:12:30;;;;;;;10.13;9.07;;;12.10;82.90;;;;;;5073072;28;20670;-50
2020/12/19 10:14:57;;;;;;;13.40;11.90;;;12.30;82.00;;;;;;5073051;28;21164;-48
2020/12/19 10:17:24;;;;;;;14.80;10.53;;;12.30;80.30;;;;;;5072732;28;20670;-50
2020/12/19 10:19:51;;;;;;;10.60;9.23;;;12.40;80.40;;;;;;5068736;28;20932;-49
2020/12/19 10:22:18;;;;;;;11.03;10.03;;;12.50;80.30;;;;;;5073138;28;20735;-50
2020/12/19 10:24:45;;;;;;;11.80;10.73;;;12.50;79.80;;;;;;5072729;28;21021;-53
2020/12/19 10:27:12;;;;;;;12.43;10.33;;;12.50;79.20;;;;;;5072505;28;20645;-52
2020/12/19 10:29:39;;;;;;;11.30;10.20;;;12.40;79.30;;;;;;5072650;28;20624;-53
2020/12/19 10:32:07;;;;;;;11.80;10.53;;;12.40;79.50;;;;;;5072836;28;20625;-52
2020/12/19 10:34:34;;;;;;;11.23;10.10;;;12.30;79.80;;;;;;5046605;28;20971;-54
2020/12/19 10:37:01;;;;;;;12.03;10.90;;;12.20;80.30;;;;;;5064993;28;21115;-52
2020/12/19 10:39:28;;;;;;;13.17;11.50;;;12.20;80.60;;;;;;5072342;28;20648;-52
2020/12/19 10:41:55;;;;;;;11.97;10.90;;;12.20;80.80;;;;;;5072352;28;20620;-53
2020/12/19 10:44:21;;;;;;;12.23;11.10;;;12.20;80.70;;;;;;5071741;28;20656;-53
2020/12/19 10:46:48;;;;;;;11.43;10.40;;;12.20;81.20;;;;;;5034316;28;20969;-49
2020/12/19 10:49:15;;;;;;;13.77;12.40;;;12.30;81.20;;;;;;5070673;28;20642;-49
2020/12/19 10:51:43;;;;;;;11.70;10.60;;;12.40;80.60;;;;;;5072072;28;21196;-48
2020/12/19 10:54:10;;;;;;;12.90;11.70;;;12.40;80.60;;;;;;5072427;28;20625;-50
2020/12/19 10:56:36;;;;;;;12.00;10.77;;;12.40;80.30;;;;;;5060923;28;20782;-55
2020/12/19 10:59:03;;;;;;;13.27;11.47;;;12.30;80.50;;;;;;5072570;28;20617;-50
2020/12/19 11:01:30;;;;;;;12.40;11.20;;;12.40;81.00;;;;;;5078119;28;20624;-53
2020/12/19 11:03:57;;;;;;;17.20;10.30;;;12.40;80.50;;;;;;5059213;28;20653;-49
2020/12/19 11:06:24;;;;;;;12.17;10.53;;;12.40;80.90;;;;;;5073092;28;20810;-54
2020/12/19 11:08:53;;;;;;;12.10;10.90;;;12.40;81.40;;;;;;5063991;28;20679;-53
2020/12/19 11:11:20;;;;;;;10.43;9.40;;;12.50;81.90;;;;;;5057074;28;20621;-50
2020/12/19 11:13:47;;;;;;;11.00;9.70;;;12.60;82.30;;;;;;5072950;28;20632;-51
2020/12/19 11:16:21;;;;;;;10.60;9.30;;;12.90;82.60;;;;;;5071944;28;20726;-53
2020/12/19 11:18:47;;;;;;;8.70;7.90;;;13.30;81.90;;;;;;5063377;28;20618;-50
2020/12/19 11:21:14;;;;;;;13.20;9.10;;;13.80;79.80;;;;;;5069737;28;20628;-50
2020/12/19 11:23:41;;;;;;;12.60;9.97;;;14.00;77.90;;;;;;5071852;28;21443;-49
2020/12/19 11:26:08;;;;;;;12.47;11.20;;;14.00;76.80;;;;;;5071496;28;20770;-52
2020/12/19 11:28:36;;;;;;;11.00;9.90;;;14.00;76.80;;;;;;5071833;28;20674;-52
2020/12/19 11:31:03;;;;;;;10.30;9.37;;;13.80;77.20;;;;;;5071275;28;20694;-54
2020/12/19 11:33:30;;;;;;;10.83;9.93;;;13.60;77.40;;;;;;5072027;28;20904;-50
2020/12/19 11:35:58;;;;;;;14.00;12.80;;;13.40;78.20;;;;;;5071618;28;20637;-50
2020/12/19 11:38:25;;;;;;;11.90;10.80;;;13.30;79.20;;;;;;5071181;28;20666;-49
2020/12/19 11:40:52;;;;;;;13.27;12.07;;;13.20;80.20;;;;;;5072241;28;20616;-51
2020/12/19 11:43:19;;;;;;;19.63;17.73;;;13.20;80.80;;;;;;5056142;28;20627;-56
2020/12/19 11:45:46;;;;;;;11.27;10.20;;;13.10;81.10;;;;;;5052121;28;21190;-52
2020/12/19 11:48:13;;;;;;;10.53;9.63;;;13.00;81.70;;;;;;5051590;28;20630;-53
2020/12/19 11:50:40;;;;;;;11.30;10.20;;;13.00;82.20;;;;;;5071285;28;20682;-53
2020/12/19 11:53:07;;;;;;;10.87;9.87;;;12.90;82.40;;;;;;5071427;28;21023;-53
2020/12/19 11:55:34;;;;;;;12.33;11.03;;;12.90;82.30;;;;;;5071015;28;20664;-52
2020/12/19 11:58:00;;;;;;;10.53;9.63;;;12.90;82.70;;;;;;5071664;28;20698;-53
2020/12/19 12:00:29;;;;;;;11.03;10.03;;;12.90;81.70;;;;;;5071813;28;20660;-55
2020/12/19 12:02:56;;;;;;;13.23;9.47;;;12.90;81.30;;;;;;5071345;28;20624;-49
2020/12/19 12:05:23;;;;;;;10.70;9.90;;;12.80;81.00;;;;;;5071256;28;20738;-52
2020/12/19 12:07:50;;;;;;;11.90;10.77;;;12.70;81.20;;;;;;5071357;28;20695;-49
2020/12/19 12:10:16;;;;;;;11.87;10.70;;;12.60;81.30;;;;;;5070954;28;20617;-50
2020/12/19 12:12:43;;;;;;;12.07;10.33;;;12.60;81.80;;;;;;5070982;28;20678;-49
2020/12/19 12:15:10;;;;;;;11.97;10.77;;;12.60;82.00;;;;;;5070521;28;20629;-50
2020/12/19 12:17:38;;;;;;;11.83;9.53;;;12.60;82.30;;;;;;5070793;28;20699;-49
2020/12/19 12:20:05;;;;;;;11.33;10.33;;;12.60;83.00;;;;;;5070358;28;20632;-50
2020/12/19 12:22:32;;;;;;;10.27;9.20;;;12.60;83.60;;;;;;5070996;28;20702;-50
2020/12/19 12:24:58;;;;;;;12.07;11.00;;;12.60;84.60;;;;;;5070415;28;20719;-52
2020/12/19 12:27:25;;;;;;;11.63;10.53;;;12.70;85.30;;;;;;5070184;28;20621;-49
2020/12/19 12:29:52;;;;;;;10.20;9.30;;;12.70;85.80;;;;;;5071035;28;20662;-49
2020/12/19 12:32:19;;;;;;;10.73;9.67;;;12.70;86.50;;;;;;5070756;28;21056;-50
2020/12/19 12:34:47;;;;;;;11.63;10.23;;;12.80;85.80;;;;;;5070519;28;20621;-52
2020/12/19 12:37:13;;;;;;;10.67;9.67;;;12.90;86.00;;;;;;5070394;28;20653;-54
2020/12/19 12:39:40;;;;;;;12.07;10.83;;;13.00;86.40;;;;;;5070384;28;20621;-54
2020/12/19 12:42:07;;;;;;;12.60;10.37;;;13.20;86.00;;;;;;5070160;28;20740;-50
2020/12/19 12:44:34;;;;;;;10.43;9.57;;;13.50;85.80;;;;;;5068896;28;20638;-50
2020/12/19 12:47:03;;;;;;;10.30;9.30;;;13.60;85.30;;;;;;5050835;28;20719;-53